Time;durP1;ratioP1;P1;durP2;ratioP2;P2;SDS_P1;SDS_P2;PMS_P1;PMS_P2;Temp;Humidity;BMP_temperature;BMP_pressure;BME280_temperature;BME280_humidity;BME280_pressure;Samples;Min_cycle;Max_cycle;Signal;HPM_P1;HPM_P2
2023/09/06 00:00:11;;;;;;;4.50;4.20;;;17.60;99.90;;;;;;5028191;28;20202;-68
2023/09/06 00:02:38;;;;;;;4.00;3.70;;;17.60;99.90;;;;;;5031129;28;20585;-65
2023/09/06 00:05:06;;;;;;;4.13;3.83;;;17.50;99.90;;;;;;5030359;28;20604;-67
2023/09/06 00:07:33;;;;;;;6.40;5.00;;;17.50;99.90;;;;;;5028726;28;20290;-61
2023/09/06 00:10:02;;;;;;;6.53;6.03;;;17.40;99.90;;;;;;5020849;28;20198;-62
2023/09/06 00:12:30;;;;;;;7.57;6.80;;;17.40;99.90;;;;;;5026308;28;20217;-61
2023/09/06 00:14:57;;;;;;;6.90;6.27;;;17.40;99.90;;;;;;5023593;28;20294;-66
2023/09/06 00:17:24;;;;;;;11.53;8.13;;;17.30;99.90;;;;;;5035772;28;20206;-61
2023/09/06 00:19:52;;;;;;;5.70;5.40;;;17.30;99.90;;;;;;5029677;28;20201;-67
2023/09/06 00:22:20;;;;;;;5.33;4.87;;;17.20;99.90;;;;;;5047573;28;20205;-64
2023/09/06 00:24:47;;;;;;;5.23;4.93;;;17.20;99.90;;;;;;5048662;28;20310;-64
2023/09/06 00:27:14;;;;;;;5.93;5.30;;;17.20;99.90;;;;;;5037939;28;20255;-64
2023/09/06 00:29:46;;;;;;;5.87;5.27;;;17.10;99.90;;;;;;5038052;28;20328;-66
2023/09/06 00:32:12;;;;;;;5.03;4.63;;;17.00;99.90;;;;;;5036448;28;20296;-66
2023/09/06 00:34:39;;;;;;;5.20;4.90;;;17.00;99.90;;;;;;5041814;28;20218;-66
2023/09/06 00:37:07;;;;;;;5.93;5.53;;;17.00;99.90;;;;;;5038473;28;20258;-64
2023/09/06 00:39:34;;;;;;;5.00;4.70;;;17.00;99.90;;;;;;5037127;28;20203;-66
2023/09/06 00:42:03;;;;;;;5.27;4.97;;;16.90;99.90;;;;;;5031093;28;20696;-57
2023/09/06 00:44:30;;;;;;;5.37;4.83;;;16.90;99.90;;;;;;5018273;28;20198;-57
2023/09/06 00:47:00;;;;;;;5.03;4.73;;;16.90;99.90;;;;;;5032969;28;20203;-58
2023/09/06 00:49:27;;;;;;;4.97;4.67;;;16.90;99.90;;;;;;5053233;28;20614;-57
2023/09/06 00:51:54;;;;;;;5.40;5.00;;;16.90;99.90;;;;;;5055131;28;20263;-57
2023/09/06 00:54:21;;;;;;;6.63;6.13;;;16.90;99.90;;;;;;5048245;28;20195;-57
2023/09/06 00:56:47;;;;;;;6.20;5.80;;;17.00;99.90;;;;;;5035390;28;20198;-57
2023/09/06 00:59:21;;;;;;;5.33;4.93;;;16.90;99.90;;;;;;5043748;28;20206;-57
2023/09/06 01:01:48;;;;;;;5.90;5.43;;;16.90;99.90;;;;;;5024896;28;20252;-57
2023/09/06 01:04:16;;;;;;;5.50;5.10;;;16.80;99.90;;;;;;5034269;28;20242;-57
2023/09/06 01:06:45;;;;;;;5.67;5.37;;;16.80;99.90;;;;;;5035931;28;20763;-57
2023/09/06 01:09:12;;;;;;;5.60;5.20;;;16.80;99.90;;;;;;5041919;28;20193;-57
2023/09/06 01:11:40;;;;;;;5.37;5.07;;;16.80;99.90;;;;;;5035089;28;20351;-57
2023/09/06 01:14:08;;;;;;;6.10;5.70;;;16.80;99.90;;;;;;5034313;28;20248;-57
2023/09/06 01:16:41;;;;;;;5.00;4.60;;;16.70;99.90;;;;;;5041558;28;20276;-57
2023/09/06 01:19:12;;;;;;;4.80;4.57;;;16.70;99.90;;;;;;5039767;28;20207;-57
2023/09/06 01:21:48;;;;;;;6.00;5.50;;;16.70;99.90;;;;;;5041607;28;20206;-57
2023/09/06 01:24:21;;;;;;;5.77;5.40;;;16.70;99.90;;;;;;5039108;28;20206;-58
2023/09/06 01:26:48;;;;;;;5.57;5.20;;;16.70;99.90;;;;;;5041832;28;20296;-57
2023/09/06 01:29:15;;;;;;;6.47;5.63;;;16.70;99.90;;;;;;5050316;28;20197;-57
2023/09/06 01:31:42;;;;;;;6.23;5.63;;;16.60;99.90;;;;;;5049659;28;20198;-57
2023/09/06 01:34:09;;;;;;;4.83;4.43;;;16.60;99.90;;;;;;5045600;28;20291;-57
2023/09/06 01:36:37;;;;;;;7.13;6.53;;;16.70;99.90;;;;;;5045560;28;20577;-57
2023/09/06 01:39:06;;;;;;;8.87;8.03;;;16.70;99.90;;;;;;5048480;28;20255;-57
2023/09/06 01:41:34;;;;;;;9.23;8.37;;;16.70;99.90;;;;;;5040271;28;20234;-57
2023/09/06 01:44:01;;;;;;;8.57;7.73;;;16.60;99.90;;;;;;5033074;28;20198;-57
2023/09/06 01:46:28;;;;;;;9.13;8.23;;;16.60;99.90;;;;;;5034051;28;20238;-58
2023/09/06 01:48:55;;;;;;;8.70;8.00;;;16.50;99.90;;;;;;5033861;28;20256;-57
2023/09/06 01:51:22;;;;;;;6.70;6.17;;;16.50;99.90;;;;;;5034330;28;20914;-57
2023/09/06 01:53:49;;;;;;;7.03;6.60;;;16.50;99.90;;;;;;5036262;28;20215;-57
2023/09/06 01:56:16;;;;;;;5.90;5.40;;;16.60;99.90;;;;;;5033592;28;20309;-57
2023/09/06 01:58:44;;;;;;;8.07;6.20;;;16.70;99.90;;;;;;5037509;28;20207;-57
2023/09/06 02:01:11;;;;;;;5.33;4.90;;;16.80;99.90;;;;;;5038402;28;20198;-57
2023/09/06 02:03:38;;;;;;;5.40;4.50;;;16.80;99.90;;;;;;5039087;28;20249;-57
2023/09/06 02:06:05;;;;;;;6.43;5.93;;;16.80;99.90;;;;;;5044758;28;20275;-58
2023/09/06 02:08:35;;;;;;;6.13;5.63;;;16.80;99.90;;;;;;5043391;28;20253;-58
2023/09/06 02:11:01;;;;;;;5.77;5.27;;;16.80;99.90;;;;;;5045109;28;20669;-58
2023/09/06 02:13:28;;;;;;;5.80;5.37;;;16.70;99.90;;;;;;5047079;28;20245;-58
2023/09/06 02:15:57;;;;;;;6.47;5.57;;;16.70;99.90;;;;;;5044444;28;20762;-58
2023/09/06 02:18:26;;;;;;;5.50;5.10;;;16.70;99.90;;;;;;5022509;28;20257;-57
2023/09/06 02:20:55;;;;;;;5.67;5.17;;;16.60;99.90;;;;;;5028312;28;20203;-57
2023/09/06 02:23:22;;;;;;;8.20;7.50;;;16.60;99.90;;;;;;5033002;28;20203;-57
2023/09/06 02:25:49;;;;;;;7.17;6.57;;;16.60;99.90;;;;;;5032897;28;20218;-57
2023/09/06 02:28:17;;;;;;;5.90;5.40;;;16.60;99.90;;;;;;5033377;28;20202;-57
2023/09/06 02:30:44;;;;;;;6.07;5.57;;;16.70;99.90;;;;;;5032228;28;20210;-57
2023/09/06 02:33:14;;;;;;;6.13;5.60;;;16.70;99.90;;;;;;5038168;28;20329;-57
2023/09/06 02:35:41;;;;;;;5.03;4.73;;;16.70;99.90;;;;;;5040469;28;20222;-57
2023/09/06 02:38:09;;;;;;;6.03;5.53;;;16.60;99.90;;;;;;5017966;28;20633;-57
2023/09/06 02:40:36;;;;;;;6.23;5.60;;;16.70;99.90;;;;;;5013371;28;20269;-57
2023/09/06 02:43:04;;;;;;;5.73;5.43;;;16.50;99.90;;;;;;5034529;28;20244;-57
2023/09/06 02:45:37;;;;;;;4.63;4.33;;;16.40;99.90;;;;;;5040331;28;20692;-57
2023/09/06 02:48:06;;;;;;;5.80;5.40;;;16.30;99.90;;;;;;5032891;28;20202;-57
2023/09/06 02:50:36;;;;;;;5.60;5.17;;;16.30;99.90;;;;;;5033770;28;20198;-57
2023/09/06 02:53:03;;;;;;;6.07;5.57;;;16.30;99.90;;;;;;5026434;28;20210;-57
2023/09/06 02:55:33;;;;;;;5.17;4.87;;;16.20;99.90;;;;;;5032521;28;20309;-57
2023/09/06 02:58:00;;;;;;;5.93;5.53;;;16.10;99.90;;;;;;5040881;28;20285;-57
2023/09/06 03:00:29;;;;;;;5.90;5.50;;;16.00;99.90;;;;;;5029687;28;20202;-57
2023/09/06 03:02:58;;;;;;;6.40;5.90;;;16.00;99.90;;;;;;5039900;28;20210;-57
2023/09/06 03:05:27;;;;;;;5.60;5.10;;;16.00;99.90;;;;;;5048327;28;20227;-57
2023/09/06 03:07:55;;;;;;;5.80;5.40;;;15.90;99.90;;;;;;5045529;28;20206;-57
2023/09/06 03:10:23;;;;;;;6.90;6.33;;;15.80;99.90;;;;;;5039458;28;20206;-57
2023/09/06 03:12:55;;;;;;;6.17;5.63;;;15.80;99.90;;;;;;5041901;28;20199;-57
2023/09/06 03:15:23;;;;;;;6.97;6.50;;;15.80;99.90;;;;;;5048665;28;20680;-57
2023/09/06 03:17:51;;;;;;;8.43;6.87;;;15.70;99.90;;;;;;5052141;28;20289;-57
2023/09/06 03:20:31;;;;;;;5.27;4.97;;;15.70;99.90;;;;;;5043604;28;20195;-57
2023/09/06 03:23:00;;;;;;;5.67;5.27;;;15.60;99.90;;;;;;5029685;28;20211;-57
2023/09/06 03:25:28;;;;;;;5.60;5.20;;;15.60;99.90;;;;;;5048903;28;20301;-57
2023/09/06 03:27:59;;;;;;;5.47;5.07;;;15.60;99.90;;;;;;5052191;28;20198;-57
2023/09/06 03:30:28;;;;;;;6.30;5.50;;;15.60;99.90;;;;;;5051864;28;20216;-57
2023/09/06 03:32:56;;;;;;;5.47;5.17;;;15.60;99.90;;;;;;5036496;28;20203;-57
2023/09/06 03:35:23;;;;;;;5.13;4.73;;;15.60;99.90;;;;;;5039826;28;20275;-55
2023/09/06 03:37:50;;;;;;;5.50;5.10;;;15.60;99.90;;;;;;5051650;28;20247;-55
2023/09/06 03:40:34;;;;;;;4.87;4.57;;;15.60;99.90;;;;;;5051985;28;20301;-55
2023/09/06 03:43:05;;;;;;;5.57;5.17;;;15.60;99.90;;;;;;5036804;28;20221;-55
2023/09/06 03:45:32;;;;;;;6.07;5.60;;;15.60;99.90;;;;;;5044366;28;20552;-56
2023/09/06 03:48:00;;;;;;;5.83;5.43;;;15.50;99.90;;;;;;5045230;28;20665;-56
2023/09/06 03:50:27;;;;;;;5.20;4.90;;;15.50;99.90;;;;;;5039848;28;20242;-55
2023/09/06 03:52:54;;;;;;;5.80;5.40;;;15.50;99.90;;;;;;5033578;28;20207;-55
2023/09/06 03:55:24;;;;;;;6.03;5.63;;;15.40;99.90;;;;;;5047597;28;20221;-55
2023/09/06 03:57:52;;;;;;;5.63;5.23;;;15.50;99.90;;;;;;5042285;28;20292;-56
2023/09/06 04:00:28;;;;;;;6.43;5.83;;;15.40;99.90;;;;;;5035268;28;20206;-55
2023/09/06 04:02:56;;;;;;;6.30;5.80;;;15.40;99.90;;;;;;5038339;28;20688;-55
2023/09/06 04:05:25;;;;;;;6.10;5.53;;;15.30;99.90;;;;;;5047840;28;20283;-55
2023/09/06 04:07:53;;;;;;;6.27;5.80;;;15.30;99.90;;;;;;5051159;28;20257;-56
2023/09/06 04:10:23;;;;;;;5.67;5.30;;;15.30;99.90;;;;;;5036346;28;20198;-56
2023/09/06 04:12:53;;;;;;;6.10;5.50;;;15.20;99.90;;;;;;5026892;28;20230;-56
2023/09/06 04:15:21;;;;;;;6.80;6.30;;;15.30;99.90;;;;;;5046939;28;20221;-56
2023/09/06 04:17:52;;;;;;;7.60;7.00;;;15.30;99.90;;;;;;5051128;28;20659;-56
2023/09/06 04:20:23;;;;;;;6.93;6.33;;;15.30;99.90;;;;;;5050667;28;20271;-56
2023/09/06 04:22:51;;;;;;;7.43;6.77;;;15.20;99.90;;;;;;5035053;28;20205;-56
2023/09/06 04:25:19;;;;;;;7.17;6.67;;;15.20;99.90;;;;;;5034339;28;20701;-56
2023/09/06 04:27:48;;;;;;;6.33;5.57;;;15.20;99.90;;;;;;5050908;28;20795;-56
2023/09/06 04:30:17;;;;;;;10.37;6.00;;;15.20;99.90;;;;;;5050851;28;20236;-56
2023/09/06 04:32:45;;;;;;;6.83;6.00;;;15.20;99.90;;;;;;5043756;28;20194;-56
2023/09/06 04:35:14;;;;;;;8.37;6.43;;;15.20;99.90;;;;;;5035031;28;20764;-56
2023/09/06 04:37:41;;;;;;;6.53;6.03;;;15.20;99.90;;;;;;5041886;28;20194;-56
2023/09/06 04:40:12;;;;;;;6.57;6.07;;;15.20;99.90;;;;;;5049167;28;20197;-56
2023/09/06 04:42:40;;;;;;;6.00;5.60;;;15.20;99.90;;;;;;5041196;28;20229;-56
2023/09/06 04:45:10;;;;;;;5.90;5.40;;;15.10;99.90;;;;;;5029279;28;20301;-56
2023/09/06 04:47:39;;;;;;;6.17;5.67;;;15.10;99.90;;;;;;5030812;28;20214;-56
2023/09/06 04:50:07;;;;;;;6.33;5.77;;;15.20;99.90;;;;;;5030074;28;20198;-55
2023/09/06 04:52:38;;;;;;;7.63;6.93;;;15.30;99.90;;;;;;5022464;28;20198;-56
2023/09/06 04:55:12;;;;;;;6.53;6.13;;;15.30;99.90;;;;;;5030304;28;20783;-56
2023/09/06 04:57:39;;;;;;;7.03;6.43;;;15.20;99.90;;;;;;5030667;28;20198;-55
2023/09/06 05:00:17;;;;;;;8.70;6.93;;;15.30;99.90;;;;;;5030136;28;20548;-56
2023/09/06 05:02:45;;;;;;;6.33;5.70;;;15.30;99.90;;;;;;5017025;28;20202;-56
2023/09/06 05:05:14;;;;;;;6.77;6.17;;;15.30;99.90;;;;;;5028859;28;20226;-56
2023/09/06 05:07:41;;;;;;;5.50;5.07;;;15.30;99.90;;;;;;5025072;28;20767;-56
2023/09/06 05:10:10;;;;;;;7.43;6.60;;;15.30;99.90;;;;;;5029131;28;20198;-56
2023/09/06 05:12:37;;;;;;;6.50;5.67;;;15.30;99.90;;;;;;5018968;28;20823;-56
2023/09/06 05:15:04;;;;;;;7.23;6.63;;;15.30;99.90;;;;;;5029018;28;20219;-56
2023/09/06 05:17:33;;;;;;;6.07;5.73;;;15.30;99.90;;;;;;5030414;28;20252;-56
2023/09/06 05:20:25;;;;;;;7.90;7.30;;;15.30;99.90;;;;;;5029325;28;20286;-56
2023/09/06 05:22:52;;;;;;;5.97;5.57;;;15.30;99.90;;;;;;5022225;28;20205;-56
2023/09/06 05:25:19;;;;;;;6.13;5.67;;;15.40;99.90;;;;;;5029895;28;20323;-56
2023/09/06 05:27:46;;;;;;;6.30;5.90;;;15.50;99.90;;;;;;5030199;28;20289;-56
2023/09/06 05:30:14;;;;;;;6.30;5.23;;;15.50;99.90;;;;;;5026573;28;20268;-56
2023/09/06 05:32:43;;;;;;;7.70;7.20;;;15.60;99.90;;;;;;5022976;28;20285;-56
2023/09/06 05:35:10;;;;;;;6.60;6.10;;;15.60;99.90;;;;;;5037376;28;20221;-56
2023/09/06 05:37:38;;;;;;;6.20;5.70;;;15.70;99.90;;;;;;5033949;28;20195;-56
2023/09/06 05:40:06;;;;;;;7.87;7.27;;;15.80;99.90;;;;;;5033066;28;20282;-55
2023/09/06 05:42:33;;;;;;;8.47;7.63;;;15.90;99.90;;;;;;5024101;28;20257;-56
2023/09/06 05:45:00;;;;;;;8.20;7.30;;;16.20;99.90;;;;;;5013497;28;20218;-56
2023/09/06 05:47:27;;;;;;;8.03;7.23;;;17.20;99.90;;;;;;5027905;28;20283;-56
2023/09/06 05:49:57;;;;;;;6.93;6.43;;;18.50;99.90;;;;;;5032990;28;20199;-56
2023/09/06 05:52:24;;;;;;;6.40;5.93;;;19.70;99.90;;;;;;5025355;28;20198;-56
2023/09/06 05:54:51;;;;;;;7.80;5.97;;;20.70;99.90;;;;;;5013445;28;20223;-56
2023/09/06 05:57:19;;;;;;;7.37;6.70;;;21.70;99.90;;;;;;5013722;28;20569;-56
2023/09/06 05:59:46;;;;;;;6.77;6.27;;;22.30;99.90;;;;;;5014218;28;20203;-56
2023/09/06 06:02:14;;;;;;;6.60;6.20;;;22.80;99.90;;;;;;5023895;28;20202;-56
2023/09/06 06:04:45;;;;;;;10.10;5.67;;;23.40;99.90;;;;;;5013704;28;20233;-56
2023/09/06 06:07:13;;;;;;;5.60;5.20;;;23.90;99.90;;;;;;5013718;28;20215;-56
2023/09/06 06:09:41;;;;;;;6.60;6.00;;;24.60;99.90;;;;;;5017864;28;20195;-56
2023/09/06 06:12:08;;;;;;;5.70;5.13;;;25.00;99.90;;;;;;5018093;28;20265;-57
2023/09/06 06:14:36;;;;;;;5.60;5.20;;;25.30;99.90;;;;;;5024377;28;20199;-57
2023/09/06 06:17:05;;;;;;;6.30;5.90;;;25.30;99.90;;;;;;5022824;28;20199;-57
2023/09/06 06:19:32;;;;;;;5.47;5.17;;;25.60;99.90;;;;;;5022633;28;20294;-56
2023/09/06 06:22:01;;;;;;;5.77;5.40;;;26.20;99.90;;;;;;5024051;28;20681;-56
2023/09/06 06:24:29;;;;;;;5.20;4.90;;;26.40;99.90;;;;;;5015601;28;20234;-57
2023/09/06 06:26:56;;;;;;;5.57;4.47;;;26.90;99.90;;;;;;5017107;28;20269;-56
2023/09/06 06:29:23;;;;;;;4.80;4.40;;;27.60;99.90;;;;;;5021167;28;20698;-57
2023/09/06 06:31:51;;;;;;;4.57;4.25;;;27.80;99.90;;;;;;5029248;28;20203;-57
2023/09/06 06:34:19;;;;;;;3.78;3.58;;;27.80;99.90;;;;;;5025034;28;20569;-57
2023/09/06 06:36:46;;;;;;;4.13;3.53;;;28.30;99.90;;;;;;5027698;28;20653;-57
2023/09/06 06:39:13;;;;;;;3.42;3.22;;;28.40;99.90;;;;;;5032812;28;20289;-57
2023/09/06 06:41:43;;;;;;;3.72;3.63;;;28.60;99.90;;;;;;5023193;28;20207;-57
2023/09/06 06:44:10;;;;;;;3.22;3.13;;;29.10;99.90;;;;;;5026546;28;20245;-57
2023/09/06 06:46:39;;;;;;;3.45;3.33;;;29.50;99.90;;;;;;5027559;28;20668;-57
2023/09/06 06:49:07;;;;;;;4.88;4.47;;;29.80;99.90;;;;;;5029899;28;20286;-57
2023/09/06 06:51:38;;;;;;;3.70;3.42;;;29.90;99.90;;;;;;5031135;28;20213;-57
2023/09/06 06:54:06;;;;;;;3.70;3.50;;;29.70;99.90;;;;;;5032584;28;20249;-57
2023/09/06 06:56:33;;;;;;;4.80;4.50;;;29.40;99.90;;;;;;5026101;28;20701;-57
2023/09/06 06:59:02;;;;;;;3.38;3.17;;;29.50;99.90;;;;;;5032327;28;20199;-57
2023/09/06 07:01:30;;;;;;;3.88;3.58;;;30.00;99.90;;;;;;5026176;28;20203;-57
2023/09/06 07:03:58;;;;;;;3.13;3.03;;;29.40;99.90;;;;;;5032072;28;20199;-57
2023/09/06 07:06:25;;;;;;;3.70;3.55;;;29.50;99.90;;;;;;5031399;28;20577;-57
2023/09/06 07:08:52;;;;;;;4.13;3.92;;;28.70;99.90;;;;;;5030252;28;20230;-57
2023/09/06 07:11:20;;;;;;;4.00;3.80;;;29.00;99.90;;;;;;5029367;28;20576;-57
2023/09/06 07:13:48;;;;;;;3.92;3.40;;;29.20;99.90;;;;;;5031944;28;20264;-57
2023/09/06 07:16:18;;;;;;;3.75;3.40;;;29.50;99.90;;;;;;5029440;28;20226;-57
2023/09/06 07:18:45;;;;;;;3.80;3.60;;;29.80;99.90;;;;;;5031447;28;20224;-57
2023/09/06 07:21:12;;;;;;;3.65;3.55;;;30.20;99.90;;;;;;5030784;28;20238;-57
2023/09/06 07:23:39;;;;;;;3.72;3.50;;;30.60;99.90;;;;;;5031509;28;20902;-57
2023/09/06 07:26:06;;;;;;;4.85;4.35;;;30.80;99.90;;;;;;5027740;28;20229;-57
2023/09/06 07:28:39;;;;;;;4.22;3.92;;;30.80;99.90;;;;;;5021218;28;20246;-57
2023/09/06 07:31:06;;;;;;;4.50;4.30;;;31.00;99.90;;;;;;5025590;28;20206;-56
2023/09/06 07:33:34;;;;;;;3.63;3.53;;;31.00;99.90;;;;;;5030432;28;20612;-57
2023/09/06 07:36:01;;;;;;;4.72;4.50;;;30.60;99.90;;;;;;5031129;28;20292;-56
2023/09/06 07:38:28;;;;;;;5.50;5.07;;;30.90;99.90;;;;;;5031461;28;20224;-56
2023/09/06 07:40:59;;;;;;;5.50;5.20;;;31.10;99.90;;;;;;5031572;28;20199;-57
2023/09/06 07:43:28;;;;;;;4.90;4.70;;;31.20;99.90;;;;;;5031258;28;20621;-57
2023/09/06 07:45:56;;;;;;;6.43;5.85;;;30.90;99.90;;;;;;5030784;28;20252;-56
2023/09/06 07:48:23;;;;;;;5.15;4.75;;;31.10;99.90;;;;;;5031250;28;20253;-57
2023/09/06 07:50:52;;;;;;;5.90;5.47;;;31.10;99.90;;;;;;5022217;28;20282;-56
2023/09/06 07:53:18;;;;;;;6.07;5.57;;;31.30;99.90;;;;;;5031284;28;20206;-56
2023/09/06 07:55:46;;;;;;;4.95;4.68;;;31.40;99.90;;;;;;5029770;28;20222;-56
2023/09/06 07:58:14;;;;;;;5.65;5.20;;;31.40;99.90;;;;;;5031095;28;20286;-56
2023/09/06 08:00:42;;;;;;;4.82;4.63;;;31.60;99.90;;;;;;5030995;28;20203;-56
2023/09/06 08:03:09;;;;;;;4.90;4.53;;;31.80;99.90;;;;;;5031230;28;20281;-56
2023/09/06 08:05:36;;;;;;;6.05;5.65;;;32.00;99.90;;;;;;5030387;28;20218;-56
2023/09/06 08:08:06;;;;;;;5.90;5.60;;;31.80;99.90;;;;;;5026063;28;20210;-57
2023/09/06 08:10:34;;;;;;;5.10;4.80;;;31.30;99.90;;;;;;5018123;28;20256;-56
2023/09/06 08:13:02;;;;;;;5.60;5.15;;;31.00;99.90;;;;;;5016484;28;20257;-57
2023/09/06 08:15:28;;;;;;;6.35;5.78;;;30.80;99.90;;;;;;5013609;28;20713;-57
2023/09/06 08:17:55;;;;;;;6.60;6.20;;;31.00;99.90;;;;;;5011589;28;20191;-57
2023/09/06 08:20:22;;;;;;;6.18;5.75;;;31.00;99.90;;;;;;5027236;28;20233;-57
2023/09/06 08:22:49;;;;;;;6.43;5.93;;;31.30;99.90;;;;;;5039418;28;20316;-57
2023/09/06 08:25:19;;;;;;;6.05;5.75;;;31.30;99.90;;;;;;5030272;28;20241;-57
2023/09/06 08:27:46;;;;;;;6.68;6.28;;;31.30;99.90;;;;;;5030880;28;20230;-57
2023/09/06 08:30:15;;;;;;;5.38;5.10;;;31.10;99.90;;;;;;5025357;28;20210;-56
2023/09/06 08:32:43;;;;;;;6.97;6.47;;;31.60;99.90;;;;;;5030931;28;20290;-56
2023/09/06 08:35:12;;;;;;;7.88;7.28;;;30.80;99.90;;;;;;5029207;28;20218;-57
2023/09/06 08:37:39;;;;;;;5.75;5.43;;;30.60;99.90;;;;;;5033541;28;20277;-57
2023/09/06 08:40:08;;;;;;;5.53;5.15;;;30.50;99.90;;;;;;5042466;28;20227;-57
2023/09/06 08:42:37;;;;;;;7.32;6.65;;;30.60;99.90;;;;;;5051065;28;20372;-57
2023/09/06 08:45:07;;;;;;;7.10;4.85;;;30.90;99.90;;;;;;5047747;28;20221;-56
2023/09/06 08:47:37;;;;;;;5.32;5.03;;;31.40;99.90;;;;;;5030294;28;20214;-57
2023/09/06 08:50:06;;;;;;;5.57;5.25;;;31.60;99.50;;;;;;5042940;28;20224;-56
2023/09/06 08:52:34;;;;;;;6.72;5.97;;;31.50;99.70;;;;;;5050767;28;20719;-57
2023/09/06 08:55:01;;;;;;;5.68;5.45;;;31.40;99.90;;;;;;5049025;28;20279;-57
2023/09/06 08:57:29;;;;;;;14.32;7.18;;;31.60;99.90;;;;;;5035012;28;20226;-56
2023/09/06 08:59:58;;;;;;;6.70;6.03;;;31.60;99.90;;;;;;5042486;28;20189;-56
2023/09/06 09:02:24;;;;;;;17.05;9.68;;;31.70;99.40;;;;;;5037002;28;20248;-56
2023/09/06 09:04:51;;;;;;;7.15;6.65;;;31.70;99.90;;;;;;5030244;28;20226;-56
2023/09/06 09:07:19;;;;;;;12.50;7.53;;;31.00;99.90;;;;;;5038612;28;20198;-56
2023/09/06 09:10:00;;;;;;;7.72;7.00;;;31.60;99.90;;;;;;5045419;28;20764;-56
2023/09/06 09:12:28;;;;;;;36.85;10.20;;;31.20;99.60;;;;;;5054479;28;20236;-57
2023/09/06 09:14:57;;;;;;;52.50;20.95;;;30.10;99.90;;;;;;5053611;28;20229;-57
2023/09/06 09:17:25;;;;;;;237.77;63.75;;;30.00;99.90;;;;;;5032691;28;20202;-56
2023/09/06 09:19:54;;;;;;;11.15;7.25;;;30.20;99.90;;;;;;5045655;28;20255;-56
2023/09/06 09:22:24;;;;;;;7.65;7.07;;;29.90;99.90;;;;;;5054561;28;20206;-56
2023/09/06 09:24:58;;;;;;;6.50;6.00;;;29.50;99.90;;;;;;5052918;28;20275;-56
2023/09/06 09:27:27;;;;;;;7.70;6.95;;;29.40;99.90;;;;;;5033163;28;20617;-56
2023/09/06 09:29:54;;;;;;;5.93;5.43;;;30.00;99.90;;;;;;5014426;28;20265;-56
2023/09/06 09:32:22;;;;;;;6.30;6.00;;;30.80;99.90;;;;;;5014533;28;20207;-56
2023/09/06 09:34:50;;;;;;;8.23;6.90;;;30.80;99.90;;;;;;5013962;28;20230;-56
2023/09/06 09:37:17;;;;;;;7.05;6.45;;;30.60;99.90;;;;;;5039939;28;20736;-56
2023/09/06 09:39:44;;;;;;;7.43;6.82;;;30.80;99.90;;;;;;5041345;28;20264;-56
2023/09/06 09:42:12;;;;;;;7.88;5.78;;;30.60;99.90;;;;;;5048564;28;20301;-56
2023/09/06 09:44:40;;;;;;;5.93;5.60;;;31.10;99.90;;;;;;5053453;28;20222;-56
2023/09/06 09:47:13;;;;;;;7.63;7.03;;;31.30;99.90;;;;;;5044468;28;20205;-56
2023/09/06 09:49:43;;;;;;;11.07;6.03;;;30.80;99.90;;;;;;5041165;28;20279;-56
2023/09/06 09:52:12;;;;;;;5.88;5.47;;;30.50;99.90;;;;;;5048129;28;20198;-56
2023/09/06 09:54:43;;;;;;;7.15;6.50;;;30.80;99.90;;;;;;5053404;28;20677;-57
2023/09/06 09:57:11;;;;;;;10.35;6.95;;;30.50;99.90;;;;;;5044089;28;20234;-56
2023/09/06 09:59:38;;;;;;;7.03;6.40;;;30.20;99.90;;;;;;5050835;28;20209;-57
2023/09/06 10:02:07;;;;;;;6.85;6.18;;;30.70;99.90;;;;;;5041664;28;20290;-56
2023/09/06 10:04:37;;;;;;;8.00;7.32;;;30.80;99.90;;;;;;5050706;28;20605;-56
2023/09/06 10:07:11;;;;;;;6.18;5.88;;;30.40;99.90;;;;;;5042959;28;20733;-56
2023/09/06 10:09:40;;;;;;;7.15;6.57;;;30.30;99.90;;;;;;5051721;28;20206;-56
2023/09/06 10:12:09;;;;;;;7.05;6.43;;;30.50;99.90;;;;;;5051486;28;20206;-56
2023/09/06 10:14:39;;;;;;;8.73;6.70;;;30.50;99.90;;;;;;5041190;28;20198;-56
2023/09/06 10:17:07;;;;;;;6.53;6.03;;;29.90;99.90;;;;;;5038254;28;20205;-56
2023/09/06 10:19:35;;;;;;;7.22;6.68;;;29.50;99.90;;;;;;5034751;28;20282;-57
2023/09/06 10:22:03;;;;;;;6.57;6.18;;;30.00;99.90;;;;;;5033377;28;20632;-56
2023/09/06 10:24:35;;;;;;;8.13;7.53;;;29.70;99.90;;;;;;5030215;28;20520;-57
2023/09/06 10:27:03;;;;;;;6.22;5.72;;;29.20;99.90;;;;;;5027236;28;20203;-56
2023/09/06 10:29:32;;;;;;;7.10;6.65;;;29.50;99.90;;;;;;5026515;28;20219;-56
2023/09/06 10:32:04;;;;;;;7.25;6.68;;;29.20;99.90;;;;;;5032830;28;20293;-57
2023/09/06 10:34:33;;;;;;;6.25;5.78;;;29.50;99.90;;;;;;5030600;28;20286;-63
2023/09/06 10:37:03;;;;;;;6.70;6.15;;;30.00;99.90;;;;;;5025255;28;20277;-66
2023/09/06 10:39:31;;;;;;;6.80;6.32;;;30.10;99.90;;;;;;5039975;28;20190;-66
2023/09/06 10:42:16;;;;;;;7.38;6.75;;;30.20;99.90;;;;;;5045228;28;20521;-66
2023/09/06 10:45:11;;;;;;;6.30;5.90;;;30.00;99.90;;;;;;5043115;28;20280;-66
2023/09/06 10:47:38;;;;;;;10.38;7.45;;;29.90;99.90;;;;;;5044380;28;20194;-66
2023/09/06 10:50:13;;;;;;;6.10;5.82;;;29.40;99.90;;;;;;5042677;28;20194;-65
2023/09/06 10:52:41;;;;;;;6.28;5.68;;;29.10;99.90;;;;;;5050685;28;20710;-66
2023/09/06 10:55:14;;;;;;;6.32;5.80;;;28.70;99.90;;;;;;5044282;28;20305;-66
2023/09/06 10:57:55;;;;;;;6.75;6.22;;;28.00;99.90;;;;;;5044495;28;20655;-67
2023/09/06 11:00:26;;;;;;;5.32;5.03;;;27.60;99.90;;;;;;5048922;28;20267;-66
2023/09/06 11:03:21;;;;;;;6.68;6.07;;;27.40;99.90;;;;;;5039148;28;20260;-66
2023/09/06 11:05:56;;;;;;;5.43;5.07;;;27.30;99.90;;;;;;5033588;28;20271;-66
2023/09/06 11:08:30;;;;;;;6.38;5.88;;;26.90;99.90;;;;;;5037992;28;20648;-67
2023/09/06 11:11:04;;;;;;;5.45;5.05;;;26.70;99.90;;;;;;5032044;28;20206;-55
2023/09/06 11:13:34;;;;;;;6.47;6.03;;;26.80;99.90;;;;;;5028760;28;20202;-55
2023/09/06 11:16:01;;;;;;;5.73;5.43;;;26.80;99.90;;;;;;5021826;28;20219;-66
2023/09/06 11:18:30;;;;;;;5.70;5.30;;;27.10;99.90;;;;;;5028633;28;20206;-66
2023/09/06 11:20:59;;;;;;;6.43;5.93;;;27.30;99.90;;;;;;5024197;28;20214;-67
2023/09/06 11:23:26;;;;;;;9.68;6.18;;;26.80;99.90;;;;;;5031824;28;20202;-67
2023/09/06 11:25:58;;;;;;;8.15;7.40;;;26.80;99.90;;;;;;5018757;28;20292;-57
2023/09/06 11:28:28;;;;;;;6.87;6.37;;;26.90;99.90;;;;;;5015921;28;20718;-60
2023/09/06 11:30:58;;;;;;;5.75;5.45;;;26.80;99.90;;;;;;5022636;28;20217;-64
2023/09/06 11:33:31;;;;;;;6.70;6.30;;;26.80;99.90;;;;;;5030811;28;20260;-70
2023/09/06 11:36:03;;;;;;;7.17;6.67;;;26.60;99.90;;;;;;5029197;28;20222;-70
2023/09/06 11:38:33;;;;;;;7.23;6.63;;;26.10;99.90;;;;;;5038793;28;20190;-65
2023/09/06 11:41:03;;;;;;;8.90;6.60;;;26.20;99.90;;;;;;5035773;28;20958;-67
2023/09/06 11:43:31;;;;;;;7.70;7.13;;;26.30;99.90;;;;;;5034523;28;20199;-67
2023/09/06 11:46:03;;;;;;;6.73;6.33;;;25.90;99.90;;;;;;5024317;28;20549;-60
2023/09/06 11:48:33;;;;;;;7.13;6.73;;;25.60;99.90;;;;;;5034735;28;20222;-60
2023/09/06 11:51:08;;;;;;;7.20;6.57;;;25.50;99.90;;;;;;5032060;28;20640;-62
2023/09/06 11:53:40;;;;;;;6.63;6.10;;;25.40;99.90;;;;;;5031734;28;20205;-62
2023/09/06 11:56:11;;;;;;;6.43;5.93;;;25.40;99.90;;;;;;5029024;28;20229;-62
2023/09/06 11:58:45;;;;;;;6.77;6.27;;;25.40;99.90;;;;;;5041069;28;20270;-63
2023/09/06 12:01:20;;;;;;;6.60;5.97;;;25.60;99.90;;;;;;5051321;28;20209;-62
2023/09/06 12:03:48;;;;;;;6.20;5.80;;;25.60;99.90;;;;;;5051374;28;20205;-70
2023/09/06 12:06:15;;;;;;;6.37;5.90;;;25.70;99.90;;;;;;5029171;28;20218;-70
2023/09/06 12:08:43;;;;;;;5.73;5.40;;;25.70;99.90;;;;;;5041219;28;20222;-71
2023/09/06 12:11:14;;;;;;;5.23;4.87;;;25.80;99.90;;;;;;5051219;28;20206;-72
2023/09/06 12:13:42;;;;;;;4.43;4.13;;;25.80;99.90;;;;;;5051396;28;20259;-71
2023/09/06 12:16:11;;;;;;;5.23;4.77;;;25.90;99.90;;;;;;5029238;28;20222;-72
2023/09/06 12:18:40;;;;;;;4.87;4.67;;;25.90;99.90;;;;;;5040594;28;20292;-66
2023/09/06 12:21:07;;;;;;;4.87;4.33;;;25.90;99.90;;;;;;5051234;28;20247;-66
2023/09/06 12:23:36;;;;;;;5.17;4.87;;;26.00;99.90;;;;;;5043545;28;20193;-65
2023/09/06 12:26:04;;;;;;;4.50;4.30;;;26.00;99.90;;;;;;5028665;28;20597;-68
2023/09/06 12:28:32;;;;;;;5.33;5.03;;;26.10;99.90;;;;;;5039243;28;20213;-70
2023/09/06 12:31:02;;;;;;;4.70;4.50;;;26.20;99.90;;;;;;5050786;28;20206;-65
2023/09/06 12:33:30;;;;;;;5.13;4.83;;;26.30;99.90;;;;;;5051319;28;20259;-65
2023/09/06 12:36:03;;;;;;;5.10;4.90;;;26.40;99.90;;;;;;5031772;28;20293;-65
2023/09/06 12:38:32;;;;;;;5.43;5.22;;;26.40;99.90;;;;;;5039217;28;20408;-67
2023/09/06 12:41:01;;;;;;;6.03;5.63;;;26.40;99.90;;;;;;5051225;28;20209;-68
2023/09/06 12:43:31;;;;;;;5.23;4.97;;;26.50;99.90;;;;;;5057069;28;20232;-69
2023/09/06 12:45:59;;;;;;;5.13;4.93;;;26.60;99.90;;;;;;5038665;28;20218;-65
2023/09/06 12:48:26;;;;;;;5.83;5.43;;;26.60;99.90;;;;;;5044477;28;20205;-67
2023/09/06 12:50:53;;;;;;;5.43;5.17;;;26.60;99.90;;;;;;5057473;28;20204;-61
2023/09/06 12:53:23;;;;;;;5.68;5.32;;;26.60;99.90;;;;;;5057272;28;20205;-61